Laurel, Florida
Current Conditions -  °F | °C
As of 7:15 AM on Monday 22 Dec 2014 (Local Time) from KVNC Reporting Station
Clear Clear  
Wind Chill: 72°   Ceiling: Unl
Heat Index: 72°   Visibility: 10mi
Dew Point: 66°   Wind: 14mph
Humidity: 83%   Direction: 160°SSE
Pressure: 29.98"   Gusts: 25mph
Location:  27.14°N, 82.46°W
Report Text: KVNC 221215Z AUTO 16012G22KT 10SM CLR 22/19 A2998 RMK AO2 TSNO
Loading
Personal Weather Stations






























Interactive Weather Map New forecast layout! Learn more

10-Day Weather Forecast

Advertisements
Track Severe Weather on mobile